createdAt,value
2023-05-21T00:00:51.966Z,19115.4277
2023-05-21T00:02:00.143Z,19118.4277
2023-05-21T00:03:08.190Z,19115.5000
2023-05-21T00:04:16.166Z,19115.3574
2023-05-21T00:05:24.234Z,19110.0000
2023-05-21T00:06:32.530Z,19110.0000
2023-05-21T00:07:40.523Z,19113.5000
2023-05-21T00:08:48.452Z,19111.7148
2023-05-21T00:09:56.322Z,19112.2148
2023-05-21T00:11:04.385Z,19114.5000
2023-05-21T00:12:12.451Z,19114.8574
2023-05-21T00:13:20.716Z,19113.8574
2023-05-21T00:14:28.695Z,19108.7852
2023-05-21T00:15:37.187Z,19114.1426
2023-05-21T00:16:44.977Z,19114.4277
2023-05-21T00:17:52.911Z,19117.0000
2023-05-21T00:19:00.952Z,19115.2852
2023-05-21T00:20:09.072Z,19111.7148
2023-05-21T00:21:17.048Z,19110.4277
2023-05-21T00:22:25.110Z,19113.5723
2023-05-21T00:23:33.321Z,19111.4277
2023-05-21T00:24:41.101Z,19109.0723
2023-05-21T00:25:49.181Z,19106.7852
2023-05-21T00:26:57.243Z,19105.8574
2023-05-21T00:28:05.400Z,19104.0723
2023-05-21T00:29:13.529Z,19102.5000
2023-05-21T00:30:21.535Z,19101.6426
2023-05-21T00:31:29.775Z,19098.5000
2023-05-21T00:32:37.683Z,19100.0723
2023-05-21T00:33:45.712Z,19105.9277
2023-05-21T00:34:53.846Z,19107.4277
2023-05-21T00:36:01.842Z,19109.2148
2023-05-21T00:37:09.914Z,19111.2852
2023-05-21T00:38:18.005Z,19112.3574
2023-05-21T00:39:25.898Z,19111.9277
2023-05-21T00:40:33.956Z,19106.7148
2023-05-21T00:41:41.993Z,19113.2852
2023-05-21T00:42:50.193Z,19112.7148
2023-05-21T00:43:58.273Z,19108.1426
2023-05-21T00:45:06.378Z,19108.2852
2023-05-21T00:46:14.385Z,19105.8574
2023-05-21T00:47:22.656Z,19110.0000
2023-05-21T00:48:30.474Z,19104.5000
2023-05-21T00:49:38.582Z,19105.5723
2023-05-21T00:50:46.622Z,19106.7852
2023-05-21T00:51:54.666Z,19109.4277
2023-05-21T00:53:02.770Z,19105.7148
2023-05-21T00:54:10.663Z,19103.7852
2023-05-21T00:55:18.767Z,19101.7852
2023-05-21T00:56:26.761Z,19100.1426
2023-05-21T00:57:34.937Z,19098.9277
2023-05-21T00:58:43.005Z,19099.6426
2023-05-21T00:59:51.100Z,19097.2852
2023-05-21T01:00:59.226Z,19103.2148
2023-05-21T01:02:07.227Z,19095.6426
2023-05-21T01:03:15.593Z,19097.0723
2023-05-21T01:04:23.285Z,19096.5723
2023-05-21T01:05:31.408Z,19097.6426
2023-05-21T01:06:39.426Z,19098.0000
2023-05-21T01:07:47.464Z,19096.0000
2023-05-21T01:08:55.377Z,19096.1426
2023-05-21T01:10:03.489Z,19094.2852
2023-05-21T01:11:11.521Z,19091.0723
2023-05-21T01:12:19.725Z,19093.8574
2023-05-21T01:13:27.884Z,19093.9277
2023-05-21T01:14:35.816Z,19093.2852
2023-05-21T01:15:43.908Z,19092.0000
2023-05-21T01:16:51.990Z,19092.4277
2023-05-21T01:18:00.151Z,19090.2852
2023-05-21T01:19:08.241Z,19088.3574
2023-05-21T01:20:16.097Z,19086.0000
2023-05-21T01:21:24.254Z,19089.8574
2023-05-21T01:22:32.247Z,19089.0723
2023-05-21T01:23:40.170Z,19090.0000
2023-05-21T01:24:48.246Z,19089.2148
2023-05-21T01:25:56.307Z,19091.5000
2023-05-21T01:27:04.452Z,19088.7852
2023-05-21T01:28:12.719Z,19084.2852
2023-05-21T01:29:20.580Z,19087.4277
2023-05-21T01:30:28.665Z,19081.3574
2023-05-21T01:31:36.746Z,19078.7852
2023-05-21T01:32:44.840Z,19081.1426
2023-05-21T01:33:52.854Z,19081.0000
2023-05-21T01:35:00.894Z,19077.6426
2023-05-21T01:36:09.122Z,19078.3574
2023-05-21T01:37:17.000Z,19073.7852
2023-05-21T01:38:24.915Z,19074.9277
2023-05-21T01:39:32.976Z,19077.0000
2023-05-21T01:40:41.024Z,19075.7852
2023-05-21T01:41:49.264Z,19078.2852
2023-05-21T01:42:57.370Z,19079.8574
2023-05-21T01:44:05.327Z,19080.5723
2023-05-21T01:45:13.406Z,19078.0723
2023-05-21T01:46:21.566Z,19074.2148
2023-05-21T01:47:29.589Z,19078.0000
2023-05-21T01:48:37.579Z,19075.5723
2023-05-21T01:49:45.650Z,19075.2852
2023-05-21T01:50:53.723Z,19078.4277
2023-05-21T01:52:01.764Z,19078.7852
2023-05-21T01:53:09.741Z,19078.6426
2023-05-21T01:54:17.800Z,19076.5000
2023-05-21T01:55:25.813Z,19076.7852
2023-05-21T01:56:34.072Z,19077.0000
2023-05-21T01:57:42.128Z,19079.8574
2023-05-21T01:58:50.146Z,19078.7148
2023-05-21T01:59:58.162Z,19075.0723
2023-05-21T02:01:06.318Z,19076.3574
2023-05-21T02:02:14.340Z,19073.8574
2023-05-21T02:03:22.511Z,19077.2852
2023-05-21T02:04:30.496Z,19077.7148
2023-05-21T02:05:38.630Z,19077.5723
2023-05-21T02:06:46.391Z,19078.4277
2023-05-21T02:07:54.455Z,19077.3574
2023-05-21T02:09:02.622Z,19075.7148
2023-05-21T02:10:10.845Z,19073.5723
2023-05-21T02:11:18.862Z,19075.2148
2023-05-21T02:12:26.944Z,19078.0723
2023-05-21T02:13:35.005Z,19078.7148
2023-05-21T02:14:43.030Z,19079.0723
2023-05-21T02:15:51.262Z,19080.3574
2023-05-21T02:16:59.178Z,19081.5000
2023-05-21T02:18:07.247Z,19083.7852
2023-05-21T02:19:15.351Z,19078.8574
2023-05-21T02:20:23.341Z,19082.4277
2023-05-21T02:21:31.284Z,19081.7852
2023-05-21T02:22:39.318Z,19078.4277
2023-05-21T02:23:47.369Z,19079.4277
2023-05-21T02:24:55.543Z,19079.0723
2023-05-21T02:26:03.654Z,19081.6426
2023-05-21T02:27:11.764Z,19077.0000
2023-05-21T02:28:19.739Z,19082.2852
2023-05-21T02:29:27.777Z,19083.9277
2023-05-21T02:30:35.909Z,19087.9277
2023-05-21T02:31:44.094Z,19087.0723
2023-05-21T02:32:52.043Z,19088.2852
2023-05-21T02:34:00.102Z,19090.6426
2023-05-21T02:35:08.073Z,19090.8574
2023-05-21T02:36:16.036Z,19088.5723
2023-05-21T02:37:24.064Z,19094.2148
2023-05-21T02:38:32.110Z,19094.6426
2023-05-21T02:39:40.285Z,19096.0000
2023-05-21T02:40:48.369Z,19095.0723
2023-05-21T02:41:56.485Z,19091.5000
2023-05-21T02:43:04.484Z,19091.1426
2023-05-21T02:44:12.772Z,19093.9277
2023-05-21T02:45:20.616Z,19093.2852
2023-05-21T02:46:28.814Z,19096.0723
2023-05-21T02:47:36.854Z,19095.4277
2023-05-21T02:48:45.062Z,19099.4277
2023-05-21T02:49:52.698Z,19101.2148
2023-05-21T02:51:00.766Z,19103.7852
2023-05-21T02:52:08.824Z,19107.0000
2023-05-21T02:53:17.017Z,19107.6426
2023-05-21T02:54:25.045Z,19109.2148
2023-05-21T02:55:33.168Z,19104.5000
2023-05-21T02:56:41.367Z,19103.2852
2023-05-21T02:57:49.205Z,19102.2148
2023-05-21T02:58:57.284Z,19104.1426
2023-05-21T03:00:05.325Z,19105.9277
2023-05-21T03:01:13.390Z,19109.0723
2023-05-21T03:02:21.636Z,19112.6426
2023-05-21T03:03:29.773Z,19109.6426
2023-05-21T03:04:37.430Z,19109.2852
2023-05-21T03:05:45.490Z,19113.7852
2023-05-21T03:06:53.519Z,19113.4277
2023-05-21T03:08:01.749Z,19115.7852
2023-05-21T03:09:09.836Z,19118.8574
2023-05-21T03:10:18.083Z,19119.0723
2023-05-21T03:11:26.002Z,19121.2852
2023-05-21T03:12:34.124Z,19122.5000
2023-05-21T03:13:42.104Z,19123.3574
2023-05-21T03:14:50.050Z,19122.5000
2023-05-21T03:15:58.137Z,19123.7148
2023-05-21T03:17:06.519Z,19120.1426
2023-05-21T03:18:14.138Z,19120.9277
2023-05-21T03:19:22.205Z,19120.9277
2023-05-21T03:20:30.241Z,19124.5723
2023-05-21T03:21:38.405Z,19121.7852
2023-05-21T03:22:46.563Z,19130.4277
2023-05-21T03:23:54.554Z,19130.2852
2023-05-21T03:25:02.618Z,19127.2852
2023-05-21T03:26:10.633Z,19124.7852
2023-05-21T03:27:18.932Z,19129.0000
2023-05-21T03:28:26.779Z,19132.2852
2023-05-21T03:29:34.843Z,19137.0723
2023-05-21T03:30:42.997Z,19135.6426
2023-05-21T03:31:50.968Z,19138.0723
2023-05-21T03:32:58.915Z,19139.0000
2023-05-21T03:34:06.930Z,19142.5723
2023-05-21T03:35:14.977Z,19146.2148
2023-05-21T03:36:23.193Z,19150.2852
2023-05-21T03:37:31.274Z,19157.9277
2023-05-21T03:38:39.317Z,19158.2148
2023-05-21T03:39:47.343Z,19155.0723
2023-05-21T03:40:55.419Z,19151.4277
2023-05-21T03:42:03.500Z,19154.4277
2023-05-21T03:43:11.755Z,19150.8574
2023-05-21T03:44:19.640Z,19151.2852
2023-05-21T03:45:27.676Z,19151.6426
2023-05-21T03:46:35.803Z,19150.8574
2023-05-21T03:47:43.678Z,19151.4277
2023-05-21T03:48:51.739Z,19152.0723
2023-05-21T03:49:59.795Z,19154.7852
2023-05-21T03:51:07.959Z,19151.0723
2023-05-21T03:52:16.045Z,19148.3574
2023-05-21T03:53:24.145Z,19153.1426
2023-05-21T03:54:32.127Z,19154.8574
2023-05-21T03:55:40.237Z,19153.0000
2023-05-21T03:56:48.359Z,19154.7148
2023-05-21T03:57:56.549Z,19156.7148
2023-05-21T03:59:04.439Z,19154.6426
2023-05-21T04:00:12.630Z,19152.1426
2023-05-21T04:01:20.502Z,19148.7852
2023-05-21T04:02:28.523Z,19152.1426
2023-05-21T04:03:39.269Z,19150.7148
2023-05-21T04:04:49.510Z,19152.8008
2023-05-21T04:05:57.530Z,19155.9277
2023-05-21T04:07:05.620Z,19157.4277
2023-05-21T04:08:13.818Z,19156.5723
2023-05-21T04:09:21.727Z,19159.5723
2023-05-21T04:10:29.766Z,19162.0723
2023-05-21T04:11:37.814Z,19162.0000
2023-05-21T04:12:45.876Z,19159.8574
2023-05-21T04:13:54.030Z,19156.6426
2023-05-21T04:15:02.040Z,19155.4277
2023-05-21T04:16:10.041Z,19154.7148
2023-05-21T04:17:18.047Z,19153.2852
2023-05-21T04:18:26.153Z,19149.8574
2023-05-21T04:19:34.290Z,19144.2852
2023-05-21T04:20:42.318Z,19142.7148
2023-05-21T04:21:50.399Z,19139.2852
2023-05-21T04:22:58.654Z,19141.0723
2023-05-21T04:24:06.712Z,19141.7148
2023-05-21T04:25:14.633Z,19139.7852
2023-05-21T04:26:22.622Z,19140.8574
2023-05-21T04:27:30.650Z,19138.7148
2023-05-21T04:28:38.813Z,19137.6426
2023-05-21T04:29:47.622Z,19141.0000
2023-05-21T04:30:59.611Z,19139.4004
2023-05-21T04:32:07.594Z,19132.1426
2023-05-21T04:33:15.712Z,19138.4277
2023-05-21T04:34:24.084Z,19138.1426
2023-05-21T04:35:31.947Z,19134.2852
2023-05-21T04:36:40.077Z,19136.3574
2023-05-21T04:37:48.049Z,19134.0000
2023-05-21T04:38:56.200Z,19133.6426
2023-05-21T04:40:04.304Z,19131.3574
2023-05-21T04:41:12.237Z,19123.5723
2023-05-21T04:42:20.299Z,19120.9277
2023-05-21T04:43:28.395Z,19116.6426
2023-05-21T04:44:36.451Z,19113.6426
2023-05-21T04:45:44.357Z,19112.4277
2023-05-21T04:46:52.420Z,19114.5000
2023-05-21T04:48:00.780Z,19115.2852
2023-05-21T04:49:08.649Z,19118.5723
2023-05-21T04:50:16.880Z,19115.5723
2023-05-21T04:51:24.989Z,19120.8574
2023-05-21T04:52:32.825Z,19124.5723
2023-05-21T04:53:40.901Z,19126.0000
2023-05-21T04:54:48.944Z,19123.1426
2023-05-21T04:55:57.061Z,19115.3574
2023-05-21T04:57:05.238Z,19110.7148
2023-05-21T04:58:13.204Z,19115.2852
2023-05-21T04:59:21.168Z,19108.2852
2023-05-21T05:00:29.123Z,19106.0723
2023-05-21T05:01:37.198Z,19104.2148
2023-05-21T05:02:45.310Z,19106.1426
2023-05-21T05:03:53.522Z,19105.5723
2023-05-21T05:05:01.613Z,19101.4277
2023-05-21T05:06:09.667Z,19101.2852
2023-05-21T05:07:17.627Z,19100.7148
2023-05-21T05:08:25.676Z,19097.3574
2023-05-21T05:09:33.739Z,19091.3574
2023-05-21T05:10:41.780Z,19087.7148
2023-05-21T05:11:49.859Z,19085.9277
2023-05-21T05:12:57.918Z,19089.2148
2023-05-21T05:14:05.977Z,19088.0000
2023-05-21T05:15:13.867Z,19088.6426
2023-05-21T05:16:22.016Z,19087.6426
2023-05-21T05:17:30.030Z,19090.5000
2023-05-21T05:18:38.214Z,19089.4277
2023-05-21T05:19:46.300Z,19085.5000
2023-05-21T05:20:54.335Z,19086.9277
2023-05-21T05:22:02.463Z,19085.0000
2023-05-21T05:23:10.470Z,19087.2852
2023-05-21T05:24:18.493Z,19084.5723
2023-05-21T05:25:26.681Z,19083.0723
2023-05-21T05:26:34.641Z,19078.5723
2023-05-21T05:27:42.656Z,19078.0000
2023-05-21T05:28:50.805Z,19072.2148
2023-05-21T05:29:58.673Z,19068.2852
2023-05-21T05:31:06.741Z,19066.4277
2023-05-21T05:32:14.840Z,19066.0000
2023-05-21T05:33:22.983Z,19067.5000
2023-05-21T05:34:31.063Z,19063.0723
2023-05-21T05:35:39.159Z,19061.8574
2023-05-21T05:36:47.128Z,19065.8574
2023-05-21T05:37:55.272Z,19065.2148
2023-05-21T05:39:03.513Z,19063.5723
2023-05-21T05:40:11.455Z,19058.5000
2023-05-21T05:41:19.450Z,19052.7148
2023-05-21T05:42:27.454Z,19058.4277
2023-05-21T05:43:35.471Z,19057.8574
2023-05-21T05:44:43.449Z,19055.2148
2023-05-21T05:45:51.517Z,19050.2148
2023-05-21T05:46:59.589Z,19044.6426
2023-05-21T05:48:07.925Z,19045.0723
2023-05-21T05:49:15.825Z,19045.5000
2023-05-21T05:50:23.889Z,19046.1426
2023-05-21T05:51:31.903Z,19045.6426
2023-05-21T05:52:39.971Z,19047.0000
2023-05-21T05:53:48.101Z,19046.7148
2023-05-21T05:54:56.177Z,19047.6426
2023-05-21T05:56:04.117Z,19053.7852
2023-05-21T05:57:12.396Z,19051.9277
2023-05-21T05:58:20.274Z,19056.2148
2023-05-21T05:59:28.562Z,19054.0000
2023-05-21T06:00:36.267Z,19050.0723
2023-05-21T06:01:44.321Z,19052.2852
2023-05-21T06:02:52.427Z,19054.7852
2023-05-21T06:04:00.695Z,19053.9277
2023-05-21T06:05:08.573Z,19055.7148
2023-05-21T06:06:17.041Z,19053.5000
2023-05-21T06:07:24.730Z,19047.5000
2023-05-21T06:08:32.793Z,19051.1426
2023-05-21T06:09:40.943Z,19047.7852
2023-05-21T06:10:48.942Z,19049.2148
2023-05-21T06:11:57.000Z,19044.8574
2023-05-21T06:13:05.087Z,19045.5000
2023-05-21T06:14:13.086Z,19047.7148
2023-05-21T06:15:21.001Z,19046.0000
2023-05-21T06:16:29.082Z,19040.9277
2023-05-21T06:17:37.201Z,19037.5723
2023-05-21T06:18:45.415Z,19040.0723
2023-05-21T06:19:53.608Z,19042.1426
2023-05-21T06:21:01.656Z,19044.2148
2023-05-21T06:22:09.564Z,19043.7148
2023-05-21T06:23:17.614Z,19037.2852
2023-05-21T06:24:25.738Z,19036.2148
2023-05-21T06:25:33.814Z,19036.5723
2023-05-21T06:26:41.772Z,19032.5723
2023-05-21T06:27:49.969Z,19032.7852
2023-05-21T06:28:58.007Z,19031.7148
2023-05-21T06:30:05.853Z,19027.5723
2023-05-21T06:31:13.923Z,19031.2148
2023-05-21T06:32:22.011Z,19030.4277
2023-05-21T06:33:30.223Z,19028.1426
2023-05-21T06:34:38.253Z,19027.2852
2023-05-21T06:35:46.378Z,19027.5000
2023-05-21T06:36:54.316Z,19025.3574
2023-05-21T06:38:02.400Z,19020.8574
2023-05-21T06:39:10.490Z,19022.9277
2023-05-21T06:40:18.558Z,19022.6426
2023-05-21T06:41:26.561Z,19016.7852
2023-05-21T06:42:34.626Z,19017.2148
2023-05-21T06:43:42.674Z,19013.5000
2023-05-21T06:44:50.597Z,19010.2148
2023-05-21T06:45:58.718Z,19008.2852
2023-05-21T06:47:06.713Z,19011.0000
2023-05-21T06:48:14.887Z,19009.9277
2023-05-21T06:49:22.924Z,19008.0000
2023-05-21T06:50:31.036Z,19009.0723
2023-05-21T06:51:39.100Z,19013.4277
2023-05-21T06:52:47.102Z,19008.2852
2023-05-21T06:53:55.162Z,19004.1426
2023-05-21T06:55:03.229Z,19006.6426
2023-05-21T06:56:11.312Z,19007.0000
2023-05-21T06:57:19.396Z,19006.8574
2023-05-21T06:58:27.410Z,19007.0000
2023-05-21T06:59:35.348Z,19007.2148
2023-05-21T07:00:43.442Z,19001.7852
2023-05-21T07:01:51.433Z,19003.2852
2023-05-21T07:02:59.682Z,18998.5000
2023-05-21T07:04:07.810Z,18998.5723
2023-05-21T07:05:15.765Z,19003.2852
2023-05-21T07:06:23.817Z,19004.7148
2023-05-21T07:07:31.909Z,19006.1426
2023-05-21T07:08:39.886Z,18994.8574
2023-05-21T07:09:48.011Z,18988.9277
2023-05-21T07:10:56.251Z,18988.5723
2023-05-21T07:12:04.087Z,18984.0000
2023-05-21T07:13:12.376Z,18984.4277
2023-05-21T07:14:20.075Z,18989.0000
2023-05-21T07:15:28.160Z,18992.5723
2023-05-21T07:16:36.254Z,18993.1426
2023-05-21T07:17:44.502Z,18998.2148
2023-05-21T07:18:52.462Z,18999.2852
2023-05-21T07:20:00.584Z,18998.7148
2023-05-21T07:21:08.555Z,18998.5000
2023-05-21T07:22:16.635Z,19001.5000
2023-05-21T07:23:24.672Z,18996.4277
2023-05-21T07:24:32.731Z,18997.7852
2023-05-21T07:25:40.787Z,19003.2852
2023-05-21T07:26:48.855Z,19005.1426
2023-05-21T07:27:56.905Z,19006.0000
2023-05-21T07:29:04.849Z,19004.5723
2023-05-21T07:30:12.940Z,19004.1426
2023-05-21T07:31:20.980Z,19009.3574
2023-05-21T07:32:29.276Z,19003.5000
2023-05-21T07:33:37.362Z,19003.7148
2023-05-21T07:34:45.261Z,19003.0000
2023-05-21T07:35:53.378Z,18995.9277
2023-05-21T07:37:01.355Z,19000.0723
2023-05-21T07:38:09.456Z,19001.5723
2023-05-21T07:39:17.497Z,19003.7852
2023-05-21T07:40:25.710Z,19005.3574
2023-05-21T07:41:33.643Z,19005.0000
2023-05-21T07:42:41.751Z,19005.8574
2023-05-21T07:43:49.628Z,19004.3574
2023-05-21T07:44:57.686Z,19002.4277
2023-05-21T07:46:05.820Z,19003.9277
2023-05-21T07:47:13.974Z,18999.5723
2023-05-21T07:48:22.008Z,19001.0000
2023-05-21T07:49:30.186Z,18999.4277
2023-05-21T07:50:38.251Z,18997.4277
2023-05-21T07:51:46.154Z,19005.8574
2023-05-21T07:52:54.287Z,18998.4277
2023-05-21T07:54:02.279Z,18995.8574
2023-05-21T07:55:10.371Z,18998.8574
2023-05-21T07:56:18.503Z,18993.4277
2023-05-21T07:57:26.632Z,18995.9277
2023-05-21T07:58:34.399Z,18994.2852
2023-05-21T07:59:42.469Z,18987.0000
2023-05-21T08:00:50.564Z,18991.3574
2023-05-21T08:01:58.692Z,18992.2148
2023-05-21T08:03:06.849Z,18988.3574
2023-05-21T08:04:14.927Z,18984.8574
2023-05-21T08:05:23.072Z,18982.3574
2023-05-21T08:06:30.994Z,18983.1426
2023-05-21T08:07:38.997Z,18988.4277
2023-05-21T08:08:47.104Z,18989.2148
2023-05-21T08:09:55.014Z,18989.0723
2023-05-21T08:11:03.211Z,18990.6426
2023-05-21T08:12:11.304Z,18985.2852
2023-05-21T08:13:19.282Z,18987.2852
2023-05-21T08:14:27.351Z,18985.0723
2023-05-21T08:15:35.725Z,18981.0723
2023-05-21T08:16:43.605Z,18985.3574
2023-05-21T08:17:51.529Z,18988.0000
2023-05-21T08:18:59.654Z,18984.1426
2023-05-21T08:20:07.810Z,18982.0000
2023-05-21T08:21:15.774Z,18981.2148
2023-05-21T08:22:23.679Z,18989.1426
2023-05-21T08:23:31.732Z,18985.5000
2023-05-21T08:24:39.782Z,18984.7852
2023-05-21T08:25:47.985Z,18985.0000
2023-05-21T08:26:56.103Z,18980.5000
2023-05-21T08:28:04.238Z,18977.2148
2023-05-21T08:29:12.173Z,18971.2852
2023-05-21T08:30:20.261Z,18970.1426
2023-05-21T08:31:28.373Z,18968.5000
2023-05-21T08:32:36.343Z,18961.3574
2023-05-21T08:33:44.444Z,18959.0723
2023-05-21T08:34:52.441Z,18956.2148
2023-05-21T08:36:00.724Z,18949.4277
2023-05-21T08:37:08.426Z,18940.0723
2023-05-21T08:38:16.495Z,18932.6426
2023-05-21T08:39:24.563Z,18927.6426
2023-05-21T08:40:32.737Z,18929.2852
2023-05-21T08:41:40.854Z,18926.9277
2023-05-21T08:42:48.861Z,18925.4277
2023-05-21T08:43:56.991Z,18923.3574
2023-05-21T08:45:05.059Z,18923.9277
2023-05-21T08:46:13.094Z,18923.0723
2023-05-21T08:47:21.124Z,18923.7148
2023-05-21T08:48:29.161Z,18926.0000
2023-05-21T08:49:37.183Z,18925.2148
2023-05-21T08:50:45.232Z,18927.7148
2023-05-21T08:51:53.193Z,18928.4277
2023-05-21T08:53:01.384Z,18928.7148
2023-05-21T08:54:09.284Z,18932.9277
2023-05-21T08:55:17.480Z,18935.8574
2023-05-21T08:56:25.519Z,18934.7148
2023-05-21T08:57:33.637Z,18936.3574
2023-05-21T08:58:41.700Z,18943.7148
2023-05-21T08:59:50.021Z,18947.0000
2023-05-21T09:00:57.767Z,18949.9277
2023-05-21T09:02:05.856Z,18952.8574
2023-05-21T09:03:13.987Z,18951.8574
2023-05-21T09:04:22.184Z,18949.5000
2023-05-21T09:05:29.850Z,18946.0723
2023-05-21T09:06:37.911Z,18948.6426
2023-05-21T09:07:45.972Z,18947.2852
2023-05-21T09:08:54.288Z,18949.5723
2023-05-21T09:10:02.226Z,18948.0723
2023-05-21T09:11:10.271Z,18949.0000
2023-05-21T09:12:18.330Z,18950.5723
2023-05-21T09:13:26.600Z,18948.1426
2023-05-21T09:14:34.448Z,18950.7852
2023-05-21T09:15:42.646Z,18952.7148
2023-05-21T09:16:50.794Z,18949.4277
2023-05-21T09:17:58.712Z,18951.7852
2023-05-21T09:19:06.702Z,18952.5000
2023-05-21T09:20:14.833Z,18950.2148
2023-05-21T09:21:22.643Z,18956.2852
2023-05-21T09:22:30.737Z,18960.4277
2023-05-21T09:23:38.920Z,18962.4277
2023-05-21T09:24:47.059Z,18959.0000
2023-05-21T09:25:54.974Z,18959.2852
2023-05-21T09:27:03.043Z,18955.7852
2023-05-21T09:28:11.163Z,18949.5000
2023-05-21T09:29:19.210Z,18950.9277
2023-05-21T09:30:30.187Z,18951.5723
2023-05-21T09:31:40.267Z,18945.3340
2023-05-21T09:32:48.340Z,18946.0723
2023-05-21T09:33:56.207Z,18957.3574
2023-05-21T09:35:04.253Z,18957.8574
2023-05-21T09:36:12.303Z,18959.9277
2023-05-21T09:38:33.364Z,18970.0664
2023-05-21T09:39:41.750Z,18977.3574
2023-05-21T09:40:49.681Z,18976.7852
2023-05-21T09:41:57.564Z,18977.0000
2023-05-21T09:43:05.741Z,18979.1426
2023-05-21T09:44:13.711Z,18983.0000
2023-05-21T09:45:21.745Z,18982.7148
2023-05-21T09:46:29.863Z,18986.5723
2023-05-21T09:47:37.810Z,18988.7148
2023-05-21T09:48:45.796Z,18986.6426
2023-05-21T09:49:53.845Z,18987.2148
2023-05-21T09:51:02.054Z,18983.2852
2023-05-21T09:52:10.242Z,18976.2852
2023-05-21T09:53:18.234Z,18969.5723
2023-05-21T09:54:26.270Z,18965.1426
2023-05-21T09:55:34.292Z,18962.5723
2023-05-21T09:56:42.472Z,18952.8574
2023-05-21T09:57:51.026Z,18946.0723
2023-05-21T09:58:58.546Z,18934.5000
2023-05-21T10:00:06.388Z,18917.5723
2023-05-21T10:01:14.732Z,18899.4277
2023-05-21T10:02:22.613Z,18879.5723
2023-05-21T10:03:30.646Z,18862.3574
2023-05-21T10:04:38.743Z,18840.0723
2023-05-21T10:05:46.839Z,18822.7148
2023-05-21T10:06:54.923Z,18792.9277
2023-05-21T10:08:02.985Z,18770.8574
2023-05-21T10:09:11.122Z,18748.1426
2023-05-21T10:10:19.121Z,18739.7148
2023-05-21T10:11:27.174Z,18724.3574
2023-05-21T10:12:35.255Z,18706.7148
2023-05-21T10:13:43.456Z,18696.0000
2023-05-21T10:14:51.342Z,18689.7148
2023-05-21T10:15:59.443Z,18679.9277
2023-05-21T10:17:07.313Z,18679.2148
2023-05-21T10:18:15.374Z,18682.5723
2023-05-21T10:19:23.653Z,18682.7852
2023-05-21T10:20:31.693Z,18677.0000
2023-05-21T10:21:39.718Z,18665.8574
2023-05-21T10:22:47.909Z,18653.8574
2023-05-21T10:23:55.876Z,18645.1426
2023-05-21T10:25:03.934Z,18635.5723
2023-05-21T10:26:12.002Z,18620.3574
2023-05-21T10:27:20.099Z,18605.3574
2023-05-21T10:28:28.035Z,18590.7852
2023-05-21T10:29:36.256Z,18578.3574
2023-05-21T10:30:44.441Z,18559.7148
2023-05-21T10:31:52.298Z,18544.5000
2023-05-21T10:33:00.367Z,18542.3574
2023-05-21T10:34:08.368Z,18541.0723
2023-05-21T10:35:16.576Z,18536.0000
2023-05-21T10:36:24.594Z,18528.2148
2023-05-21T10:37:32.649Z,18517.3574
2023-05-21T10:38:40.911Z,18513.2148
2023-05-21T10:39:48.918Z,18508.6426
2023-05-21T10:40:56.858Z,18501.0723
2023-05-21T10:42:04.949Z,18497.2148
2023-05-21T10:43:13.008Z,18502.0000
2023-05-21T10:44:21.113Z,18509.5000
2023-05-21T10:45:29.184Z,18502.2148
2023-05-21T10:46:37.059Z,18488.6426
2023-05-21T10:47:45.179Z,18480.0000
2023-05-21T10:48:53.190Z,18473.7852
2023-05-21T10:50:01.399Z,18472.2148
2023-05-21T10:51:09.508Z,18475.6426
2023-05-21T10:52:17.500Z,18475.5000
2023-05-21T10:53:25.573Z,18471.3574
2023-05-21T10:54:33.877Z,18474.0000
2023-05-21T10:55:41.803Z,18467.2148
2023-05-21T10:56:49.723Z,18467.7852
2023-05-21T10:57:57.794Z,18477.5723
2023-05-21T10:59:05.893Z,18483.1426
2023-05-21T11:00:14.020Z,18484.5723
2023-05-21T11:01:21.918Z,18497.0723
2023-05-21T11:02:30.034Z,18512.4277
2023-05-21T11:03:38.297Z,18532.5723
2023-05-21T11:04:46.270Z,18548.7852
2023-05-21T11:05:54.352Z,18550.0000
2023-05-21T11:07:02.378Z,18552.1426
2023-05-21T11:08:10.472Z,18555.2852
2023-05-21T11:09:18.468Z,18561.5723
2023-05-21T11:10:26.574Z,18562.0000
2023-05-21T11:11:34.628Z,18569.6426
2023-05-21T11:12:42.660Z,18582.7852
2023-05-21T11:13:50.786Z,18598.2852
2023-05-21T11:14:58.864Z,18611.7148
2023-05-21T11:16:06.909Z,18623.5723
2023-05-21T11:17:15.150Z,18638.2148
2023-05-21T11:18:23.131Z,18650.2148
2023-05-21T11:19:33.314Z,18663.6426
2023-05-21T11:20:43.938Z,18677.7324
2023-05-21T11:21:52.158Z,18689.5000
2023-05-21T11:23:00.292Z,18694.2148
2023-05-21T11:24:08.253Z,18698.5723
2023-05-21T11:25:16.328Z,18696.7148
2023-05-21T11:26:24.395Z,18699.5723
2023-05-21T11:27:32.560Z,18692.6426
2023-05-21T11:28:40.509Z,18682.2148
2023-05-21T11:29:48.440Z,18684.7148
2023-05-21T11:30:56.711Z,18682.5000
2023-05-21T11:32:04.761Z,18679.5000
2023-05-21T11:33:12.766Z,18680.4277
2023-05-21T11:34:20.724Z,18688.1426
2023-05-21T11:35:28.778Z,18686.7852
2023-05-21T11:36:37.113Z,18699.8574
2023-05-21T11:37:44.922Z,18702.0723
2023-05-21T11:38:53.161Z,18702.8574
2023-05-21T11:40:01.253Z,18709.9277
2023-05-21T11:41:09.251Z,18718.5723
2023-05-21T11:42:17.313Z,18729.8574
2023-05-21T11:43:25.457Z,18734.2148
2023-05-21T11:44:33.498Z,18743.5723
2023-05-21T11:45:41.697Z,18740.7852
2023-05-21T11:46:49.641Z,18742.1426
2023-05-21T11:47:57.566Z,18736.0000
2023-05-21T11:49:05.568Z,18728.9277
2023-05-21T11:50:13.621Z,18717.7852
2023-05-21T11:51:21.809Z,18706.8574
2023-05-21T11:52:29.957Z,18692.7148
2023-05-21T11:53:37.935Z,18681.1426
2023-05-21T11:54:46.021Z,18672.5000
2023-05-21T11:55:54.101Z,18660.6426
2023-05-21T11:57:02.230Z,18645.3574
2023-05-21T11:58:10.240Z,18631.5000
2023-05-21T11:59:19.001Z,18609.2148
2023-05-21T12:00:26.597Z,18585.8574
2023-05-21T12:01:34.316Z,18567.0000
2023-05-21T12:02:42.454Z,18562.7148
2023-05-21T12:03:50.602Z,18556.5723
2023-05-21T12:04:58.666Z,18553.7148
2023-05-21T12:06:06.915Z,18544.7852
2023-05-21T12:07:14.818Z,18533.1426
2023-05-21T12:08:22.958Z,18532.1426
2023-05-21T12:09:30.941Z,18527.6426
2023-05-21T12:10:39.038Z,18524.5723
2023-05-21T12:11:47.089Z,18509.2148
2023-05-21T12:12:57.336Z,18502.2852
2023-05-21T12:14:08.148Z,18493.7324
2023-05-21T12:15:16.064Z,18494.0723
2023-05-21T12:16:24.191Z,18485.7852
2023-05-21T12:17:32.273Z,18478.4277
2023-05-21T12:18:40.253Z,18480.0000
2023-05-21T12:19:48.353Z,18484.8574
2023-05-21T12:20:56.516Z,18493.5000
2023-05-21T12:22:04.592Z,18497.5000
2023-05-21T12:23:12.722Z,18492.7148
2023-05-21T12:24:20.734Z,18495.7148
2023-05-21T12:25:28.859Z,18496.9277
2023-05-21T12:26:36.897Z,18511.7852
2023-05-21T12:27:44.913Z,18509.7148
2023-05-21T12:28:53.020Z,18511.0723
2023-05-21T12:30:01.060Z,18526.6426
2023-05-21T12:31:09.236Z,18545.3574
2023-05-21T12:32:17.111Z,18544.7852
2023-05-21T12:33:25.342Z,18541.0000
2023-05-21T12:34:33.247Z,18564.6426
2023-05-21T12:35:41.600Z,18584.7852
2023-05-21T12:36:49.588Z,18599.6426